Time;durP1;ratioP1;P1;durP2;ratioP2;P2;SDS_P1;SDS_P2;PMS_P1;PMS_P2;Temp;Humidity;BMP_temperature;BMP_pressure;BME280_temperature;BME280_humidity;BME280_pressure;Samples;Min_cycle;Max_cycle;Signal;HPM_P1;HPM_P2
2022/03/19 00:01:22;;;;;;;13.48;5.47;;;;;;;-6.08;74.74;96976.84;5021821;28;20045;-51
2022/03/19 00:03:49;;;;;;;12.15;5.25;;;;;;;-6.03;74.92;96975.72;5021910;28;20391;-50
2022/03/19 00:06:16;;;;;;;9.43;5.07;;;;;;;-5.99;76.06;96977.22;5021816;28;20414;-50
2022/03/19 00:08:43;;;;;;;10.15;5.07;;;;;;;-5.96;75.96;96971.16;5022204;28;20494;-49
2022/03/19 00:11:10;;;;;;;10.02;4.97;;;;;;;-6.04;75.83;96958.84;5022324;28;20507;-48
2022/03/19 00:13:37;;;;;;;8.65;4.65;;;;;;;-6.00;74.83;96960.31;5034073;28;20049;-49
2022/03/19 00:16:05;;;;;;;7.85;5.03;;;;;;;-5.95;74.37;96958.34;5022182;28;20037;-52
2022/03/19 00:18:32;;;;;;;9.65;5.45;;;;;;;-5.83;73.51;96966.28;5022180;28;20080;-52
2022/03/19 00:20:58;;;;;;;10.77;5.75;;;;;;;-5.86;73.52;96976.56;5022448;28;20049;-49
2022/03/19 00:23:25;;;;;;;10.57;4.60;;;;;;;-5.83;73.61;96968.81;5022480;28;20052;-51
2022/03/19 00:25:52;;;;;;;12.38;6.18;;;;;;;-5.85;73.54;96968.03;5022263;28;20045;-48
2022/03/19 00:28:19;;;;;;;11.50;5.35;;;;;;;-5.93;73.04;96960.81;5023723;28;20045;-49
2022/03/19 00:30:49;;;;;;;15.05;5.95;;;;;;;-5.86;72.63;96961.34;5023323;28;20566;-49
2022/03/19 00:33:16;;;;;;;8.55;5.22;;;;;;;-5.92;72.49;96967.56;5025055;28;20099;-51
2022/03/19 00:35:43;;;;;;;19.08;5.82;;;;;;;-5.92;72.16;96966.72;5023251;28;20046;-54
2022/03/19 00:38:10;;;;;;;10.45;6.05;;;;;;;-5.93;71.47;96970.16;5022683;28;20048;-49
2022/03/19 00:40:37;;;;;;;9.73;6.00;;;;;;;-6.00;71.82;96965.41;5022661;28;20034;-52
2022/03/19 00:43:04;;;;;;;13.60;6.05;;;;;;;-6.00;72.64;96964.59;5020935;28;20103;-49
2022/03/19 00:45:31;;;;;;;14.23;6.60;;;;;;;-5.92;73.14;96964.16;5020836;28;20530;-49
2022/03/19 00:47:58;;;;;;;9.82;5.35;;;;;;;-5.99;74.34;96951.84;5021472;28;20056;-52
2022/03/19 00:50:24;;;;;;;11.77;6.68;;;;;;;-5.89;74.71;96961.50;5019845;28;20038;-52
2022/03/19 00:52:51;;;;;;;10.68;4.93;;;;;;;-5.83;74.55;96951.03;5020519;28;20092;-48
2022/03/19 00:55:18;;;;;;;20.08;6.50;;;;;;;-5.79;73.29;96952.53;5019772;28;20046;-48
2022/03/19 00:57:47;;;;;;;20.00;6.90;;;;;;;-5.81;73.70;96949.25;5020823;28;20045;-48
2022/03/19 01:00:19;;;;;;;8.77;5.07;;;;;;;-5.87;74.65;96944.47;5020440;28;20092;-53
2022/03/19 01:02:45;;;;;;;11.85;5.18;;;;;;;-5.96;75.56;96956.75;5020286;28;20049;-48
2022/03/19 01:05:13;;;;;;;15.13;7.65;;;;;;;-5.85;75.23;96950.28;5019730;28;20041;-53
2022/03/19 01:07:43;;;;;;;11.50;7.05;;;;;;;-5.92;75.53;96956.56;5019908;28;20473;-47
2022/03/19 01:10:12;;;;;;;13.55;6.47;;;;;;;-5.86;75.24;96956.28;5019135;28;20053;-49
2022/03/19 01:12:38;;;;;;;12.75;6.45;;;;;;;-5.75;74.45;96948.91;5026861;28;20139;-49
2022/03/19 01:15:06;;;;;;;14.65;5.65;;;;;;;-5.70;72.96;96943.63;5018855;28;20499;-52
2022/03/19 01:17:32;;;;;;;12.07;5.78;;;;;;;-5.75;72.59;96946.38;5018647;28;20526;-52
2022/03/19 01:20:01;;;;;;;13.18;6.57;;;;;;;-5.80;73.22;96950.88;5018116;28;20045;-48
2022/03/19 01:22:28;;;;;;;21.85;9.02;;;;;;;-6.02;75.02;96925.78;5017923;28;20045;-46
2022/03/19 01:24:56;;;;;;;19.08;6.10;;;;;;;-5.99;76.22;96936.59;5022768;28;20529;-49
2022/03/19 01:27:23;;;;;;;21.25;8.13;;;;;;;-5.78;75.84;96938.91;5018261;28;20406;-49
2022/03/19 01:29:50;;;;;;;27.27;8.35;;;;;;;-5.76;75.21;96937.16;5018065;28;20057;-48
2022/03/19 01:32:17;;;;;;;21.88;7.28;;;;;;;-5.79;74.53;96937.28;5020712;28;20045;-48
2022/03/19 01:34:43;;;;;;;10.48;3.83;;;;;;;-5.89;74.78;96936.09;5018663;28;20049;-50
2022/03/19 01:37:10;;;;;;;11.02;6.68;;;;;;;-6.19;77.29;96934.25;5024234;28;20053;-47
2022/03/19 01:39:37;;;;;;;7.78;3.60;;;;;;;-6.52;79.75;96937.50;5018942;28;20403;-48
2022/03/19 01:42:04;;;;;;;19.67;6.35;;;;;;;-6.49;79.95;96939.91;5017859;28;20085;-47
2022/03/19 01:44:31;;;;;;;19.75;8.35;;;;;;;-6.51;80.48;96939.16;5019192;28;20041;-48
2022/03/19 01:47:10;;;;;;;12.82;7.85;;;;;;;-6.48;80.72;96939.03;5021604;28;20621;-49
2022/03/19 01:49:37;;;;;;;19.17;8.23;;;;;;;-6.60;81.72;96925.22;5018473;28;20113;-51
2022/03/19 01:52:05;;;;;;;20.23;7.72;;;;;;;-6.61;82.33;96937.97;5017617;28;20510;-53
2022/03/19 01:54:34;;;;;;;12.25;6.18;;;;;;;-6.62;82.83;96941.41;5017427;28;20063;-52
2022/03/19 01:57:02;;;;;;;27.10;9.48;;;;;;;-6.62;83.05;96941.41;5020434;28;20057;-47
2022/03/19 01:59:34;;;;;;;18.65;7.32;;;;;;;-6.70;83.43;96933.34;5021084;28;20099;-47
2022/03/19 02:02:06;;;;;;;17.50;7.50;;;;;;;-6.75;83.82;96941.97;5033773;28;20041;-47
2022/03/19 02:04:35;;;;;;;22.85;9.95;;;;;;;-6.85;84.21;96935.69;5017961;28;20049;-47
2022/03/19 02:07:02;;;;;;;13.02;7.65;;;;;;;-6.89;84.08;96938.47;5016895;28;20453;-48
2022/03/19 02:09:29;;;;;;;20.55;9.00;;;;;;;-6.94;84.47;96936.94;5021039;28;20041;-51
2022/03/19 02:11:56;;;;;;;18.38;7.88;;;;;;;-7.00;84.19;96936.44;5019357;28;20515;-50
2022/03/19 02:14:23;;;;;;;22.70;7.88;;;;;;;-7.08;84.79;96933.41;5019351;28;20053;-51
2022/03/19 02:16:53;;;;;;;22.27;9.45;;;;;;;-7.21;86.56;96928.09;5017732;28;20676;-48
2022/03/19 02:19:20;;;;;;;16.98;7.50;;;;;;;-7.18;87.70;96928.78;5018571;28;20049;-47
2022/03/19 02:21:50;;;;;;;16.08;7.47;;;;;;;-7.24;88.41;96929.03;5018579;28;20597;-46
2022/03/19 02:27:03;;;;;;;21.67;7.95;;;;;;;-7.33;89.30;96924.38;5016681;28;20053;-47
2022/03/19 02:29:30;;;;;;;15.93;8.40;;;;;;;-7.46;89.77;96923.31;5016848;28;20072;-46
2022/03/19 02:32:00;;;;;;;18.80;8.32;;;;;;;-7.45;89.77;96935.06;5017863;28;20037;-49
2022/03/19 02:34:27;;;;;;;19.35;8.35;;;;;;;-7.44;90.08;96931.66;5017385;28;20045;-45
2022/03/19 02:36:54;;;;;;;16.50;8.95;;;;;;;-7.40;90.74;96933.16;5019913;28;20091;-47
2022/03/19 02:39:31;;;;;;;19.33;7.28;;;;;;;-7.38;90.33;96936.44;5017970;28;20053;-46
2022/03/19 02:42:05;;;;;;;24.40;9.50;;;;;;;-7.35;89.94;96938.81;5017804;28;20046;-45
2022/03/19 02:44:32;;;;;;;17.40;8.45;;;;;;;-7.39;91.09;96934.81;5020863;28;20834;-48
2022/03/19 02:47:01;;;;;;;19.80;9.48;;;;;;;-7.50;91.79;96912.50;5021134;28;20076;-47
2022/03/19 02:49:28;;;;;;;14.77;9.50;;;;;;;-7.28;92.12;96932.59;5020825;28;20045;-47
2022/03/19 02:51:56;;;;;;;17.95;9.00;;;;;;;-7.23;91.82;96938.28;5022105;28;20030;-48
2022/03/19 02:54:26;;;;;;;22.77;9.35;;;;;;;-7.25;91.47;96932.47;5020493;28;20041;-49
2022/03/19 02:56:55;;;;;;;14.43;8.18;;;;;;;-7.40;90.76;96926.41;5022958;28;20045;-48
2022/03/19 02:59:28;;;;;;;18.08;9.05;;;;;;;-7.42;91.21;96924.81;5027374;28;20049;-48
2022/03/19 03:01:57;;;;;;;21.45;9.90;;;;;;;-7.38;90.41;96932.19;5020912;28;21623;-48
2022/03/19 03:04:25;;;;;;;22.20;9.68;;;;;;;-7.50;90.57;96938.63;5020146;28;20538;-51
2022/03/19 03:06:54;;;;;;;19.73;8.65;;;;;;;-7.58;91.34;96935.63;5020095;28;22015;-46
2022/03/19 03:09:22;;;;;;;20.05;8.07;;;;;;;-7.64;91.25;96935.06;5022479;28;20576;-46
2022/03/19 03:11:50;;;;;;;21.92;8.90;;;;;;;-7.69;91.44;96932.72;5020094;28;20046;-46
2022/03/19 03:14:23;;;;;;;17.00;8.70;;;;;;;-7.69;90.82;96937.78;5019834;28;20061;-46
2022/03/19 03:16:53;;;;;;;13.27;6.70;;;;;;;-7.75;91.15;96936.34;5019679;28;20423;-46
2022/03/19 03:19:20;;;;;;;17.13;8.60;;;;;;;-7.87;91.14;96919.16;5019747;28;20069;-47
2022/03/19 03:21:47;;;;;;;11.65;7.13;;;;;;;-7.73;90.36;96933.75;5024105;28;20041;-47
2022/03/19 03:24:15;;;;;;;14.70;8.13;;;;;;;-7.77;90.69;96935.59;5020636;28;20976;-45
2022/03/19 03:26:42;;;;;;;15.55;8.25;;;;;;;-7.77;91.06;96934.78;5020339;28;20481;-45
2022/03/19 03:29:09;;;;;;;15.73;9.30;;;;;;;-7.76;90.62;96936.41;5023226;28;20052;-45
2022/03/19 03:31:37;;;;;;;16.50;8.32;;;;;;;-7.78;90.04;96933.13;5021417;28;20048;-50
2022/03/19 03:34:04;;;;;;;14.38;9.73;;;;;;;-7.91;89.85;96928.59;5021991;28;20071;-46
2022/03/19 03:36:32;;;;;;;12.02;6.95;;;;;;;-8.05;90.07;96935.94;5023240;28;20049;-45
2022/03/19 03:38:58;;;;;;;14.30;6.78;;;;;;;-8.09;91.12;96929.38;5024487;28;20055;-47
2022/03/19 03:41:25;;;;;;;25.42;9.90;;;;;;;-8.09;91.73;96929.38;5019760;28;20049;-45
2022/03/19 03:43:52;;;;;;;30.67;8.25;;;;;;;-8.16;92.23;96938.09;5023086;28;20569;-46
2022/03/19 03:46:19;;;;;;;13.95;7.78;;;;;;;-8.14;92.79;96941.38;5023407;28;20049;-46
2022/03/19 03:48:46;;;;;;;17.02;8.23;;;;;;;-8.11;93.35;96936.22;5023222;28;20052;-46
2022/03/19 03:51:14;;;;;;;17.48;7.90;;;;;;;-8.03;93.29;96933.34;5018820;28;20033;-47
2022/03/19 03:53:44;;;;;;;22.00;8.40;;;;;;;-8.09;93.20;96937.78;5020617;28;20407;-46
2022/03/19 03:56:11;;;;;;;18.52;9.95;;;;;;;-8.13;93.69;96928.69;5025763;28;20045;-47
2022/03/19 03:58:40;;;;;;;21.50;10.45;;;;;;;-8.09;92.80;96944.53;5019907;28;20402;-48
2022/03/19 04:01:08;;;;;;;22.10;10.68;;;;;;;-8.09;93.10;96942.00;5019664;28;20046;-49
2022/03/19 04:03:35;;;;;;;20.40;9.23;;;;;;;-8.08;93.21;96943.69;5019138;28;20045;-50
2022/03/19 04:06:02;;;;;;;15.40;7.90;;;;;;;-8.19;93.52;96933.16;5019915;28;20053;-47
2022/03/19 04:08:29;;;;;;;14.57;8.23;;;;;;;-8.08;92.33;96941.16;5022694;28;20045;-48
2022/03/19 04:10:56;;;;;;;13.57;7.63;;;;;;;-8.15;91.94;96944.81;5020093;28;20041;-48
2022/03/19 04:13:22;;;;;;;15.00;9.20;;;;;;;-8.27;92.64;96941.06;5020830;28;20041;-51
2022/03/19 04:15:50;;;;;;;19.17;8.98;;;;;;;-8.35;93.04;96938.88;5020326;28;20061;-47
2022/03/19 04:18:17;;;;;;;19.73;9.05;;;;;;;-8.36;93.42;96942.25;5019223;28;20517;-46
2022/03/19 04:20:44;;;;;;;13.10;7.70;;;;;;;-8.47;93.56;96935.16;5020137;28;20046;-47
2022/03/19 04:23:10;;;;;;;27.58;12.30;;;;;;;-8.51;93.41;96942.94;5019921;28;20160;-45
2022/03/19 04:25:37;;;;;;;15.43;9.00;;;;;;;-8.66;93.90;96940.13;5019270;28;20049;-46
2022/03/19 04:28:04;;;;;;;18.35;8.98;;;;;;;-8.72;94.59;96925.22;5019636;28;20056;-50
2022/03/19 04:30:31;;;;;;;20.88;9.80;;;;;;;-8.66;95.36;96944.34;5018048;28;20053;-45
2022/03/19 04:33:00;;;;;;;13.00;7.80;;;;;;;-8.60;95.43;96944.13;5019501;28;20049;-47
2022/03/19 04:38:17;;;;;;;9.05;7.00;;;;;;;-8.60;95.35;96955.94;5020222;28;20041;-46
2022/03/19 04:40:47;;;;;;;21.10;7.80;;;;;;;-8.65;95.28;96951.88;5021562;28;20045;-47
2022/03/19 04:43:14;;;;;;;12.18;6.75;;;;;;;-8.68;95.57;96943.59;5018303;28;20050;-47
2022/03/19 04:45:42;;;;;;;17.85;10.15;;;;;;;-8.60;95.55;96948.38;5021602;28;20107;-47
2022/03/19 04:48:10;;;;;;;17.23;9.02;;;;;;;-8.59;95.90;96955.03;5022385;28;20050;-46
2022/03/19 04:50:39;;;;;;;14.35;7.13;;;;;;;-8.58;95.76;96956.69;5024610;28;20091;-48
2022/03/19 04:53:06;;;;;;;11.57;6.63;;;;;;;-8.53;95.91;96949.75;5018896;28;20080;-47
2022/03/19 04:55:36;;;;;;;17.00;7.60;;;;;;;-8.47;95.80;96949.50;5019113;28;20120;-52
2022/03/19 04:58:05;;;;;;;18.15;7.95;;;;;;;-8.41;95.27;96949.22;5020101;28;20128;-49
2022/03/19 05:00:32;;;;;;;34.05;13.38;;;;;;;-8.40;95.39;96955.91;5020792;28;20064;-48
2022/03/19 05:03:03;;;;;;;28.42;13.50;;;;;;;-8.35;95.55;96956.56;5019440;28;20049;-51
2022/03/19 05:05:31;;;;;;;23.35;11.88;;;;;;;-8.26;95.89;96953.66;5019026;28;20077;-51
2022/03/19 05:07:58;;;;;;;16.55;9.15;;;;;;;-8.21;95.06;96940.00;5018787;28;22027;-46
2022/03/19 05:13:11;;;;;;;24.42;12.60;;;;;;;-8.03;95.18;96964.53;5018782;28;20045;-47
2022/03/19 05:15:38;;;;;;;17.10;9.30;;;;;;;-7.83;95.79;96960.31;5019270;28;20037;-46
2022/03/19 05:18:05;;;;;;;19.90;12.00;;;;;;;-7.69;96.04;96960.56;5018899;28;20040;-47
2022/03/19 05:20:35;;;;;;;34.15;14.30;;;;;;;-7.55;95.91;96960.78;5024559;28;20052;-48
2022/03/19 05:23:04;;;;;;;22.98;12.15;;;;;;;-7.42;95.17;96967.84;5019853;28;20465;-46
2022/03/19 05:25:31;;;;;;;24.80;11.65;;;;;;;-7.25;94.29;96967.09;5020153;28;20111;-46
2022/03/19 05:27:58;;;;;;;43.40;22.90;;;;;;;-7.10;93.67;96961.34;5019785;28;20041;-47
2022/03/19 05:30:25;;;;;;;30.15;15.23;;;;;;;-6.95;92.77;96967.41;5024450;28;20057;-50
2022/03/19 05:32:52;;;;;;;39.42;21.00;;;;;;;-6.83;92.07;96966.84;5020013;28;20060;-50
2022/03/19 05:35:21;;;;;;;51.97;24.95;;;;;;;-6.70;91.41;96971.34;5020060;28;20058;-49
2022/03/19 05:37:49;;;;;;;24.63;14.10;;;;;;;-6.52;90.79;96967.94;5021516;28;20049;-51
2022/03/19 05:40:17;;;;;;;20.55;10.18;;;;;;;-6.37;90.53;96966.41;5019571;28;20038;-47
2022/03/19 05:42:44;;;;;;;35.13;15.63;;;;;;;-6.22;89.68;96965.66;5025858;28;20041;-51
2022/03/19 05:45:13;;;;;;;38.63;14.88;;;;;;;-6.07;89.45;96959.00;5018062;28;20426;-49
2022/03/19 05:47:40;;;;;;;35.10;15.15;;;;;;;-5.85;88.61;96968.03;5021489;28;20053;-48
2022/03/19 05:50:07;;;;;;;40.83;16.77;;;;;;;-5.69;87.66;96961.31;5021132;28;20041;-51
2022/03/19 05:52:34;;;;;;;34.08;16.00;;;;;;;-5.49;86.74;96965.38;5023141;28;20035;-51
2022/03/19 05:55:02;;;;;;;35.28;15.07;;;;;;;-5.32;86.36;96967.03;5020591;28;20099;-48
2022/03/19 05:57:28;;;;;;;36.63;17.65;;;;;;;-5.10;85.03;96970.97;5020341;28;20392;-50
2022/03/19 05:59:56;;;;;;;45.90;18.35;;;;;;;-4.92;84.49;96972.53;5020245;28;20048;-52
2022/03/19 06:02:24;;;;;;;31.20;14.23;;;;;;;-4.86;84.39;96973.91;5019546;28;20054;-51
2022/03/19 06:04:52;;;;;;;22.67;9.82;;;;;;;-4.84;83.82;96972.94;5020118;28;20057;-48
2022/03/19 06:07:20;;;;;;;26.48;12.70;;;;;;;-4.86;83.32;96968.84;5019716;28;20049;-49
2022/03/19 06:09:46;;;;;;;35.05;17.38;;;;;;;-4.87;81.58;96973.09;5025095;28;20056;-49
2022/03/19 06:12:13;;;;;;;35.17;17.60;;;;;;;-4.90;81.32;96978.34;5019408;28;20100;-50
2022/03/19 06:14:40;;;;;;;34.35;16.38;;;;;;;-5.21;82.42;96954.56;5018307;28;20533;-50
2022/03/19 06:17:07;;;;;;;24.45;11.93;;;;;;;-4.96;82.78;96968.53;5019353;28;20041;-52
2022/03/19 06:19:34;;;;;;;42.22;17.23;;;;;;;-4.97;82.32;96961.78;5019428;28;20053;-47
2022/03/19 06:22:00;;;;;;;26.65;13.18;;;;;;;-4.91;82.60;96956.38;5035603;28;20057;-53
2022/03/19 06:24:28;;;;;;;20.02;9.70;;;;;;;-4.88;83.15;96956.22;5027207;28;20041;-52
2022/03/19 06:26:55;;;;;;;25.05;8.98;;;;;;;-4.90;81.65;96958.00;5024514;28;20046;-48
2022/03/19 06:29:22;;;;;;;23.48;8.50;;;;;;;-4.93;81.92;96944.66;5023292;28;20048;-51
2022/03/19 06:31:49;;;;;;;16.13;8.68;;;;;;;-4.98;82.54;96947.47;5023459;28;20111;-49
2022/03/19 06:34:16;;;;;;;15.50;9.05;;;;;;;-4.74;82.83;96962.28;5024040;28;20041;-53
2022/03/19 06:39:28;;;;;;;32.67;9.75;;;;;;;-4.33;81.98;96959.16;5020988;28;20041;-53
2022/03/19 06:41:56;;;;;;;22.50;11.27;;;;;;;-4.14;81.69;96959.78;5021563;28;20061;-48
2022/03/19 06:44:22;;;;;;;29.42;13.00;;;;;;;-3.96;81.23;96965.53;5021020;28;20376;-52
2022/03/19 06:46:49;;;;;;;29.52;11.48;;;;;;;-3.82;80.55;96962.16;5024843;28;20057;-48
2022/03/19 06:49:16;;;;;;;32.17;12.70;;;;;;;-3.63;79.63;96964.47;5023207;28;20050;-49
2022/03/19 06:51:43;;;;;;;23.73;10.63;;;;;;;-3.50;78.53;96962.00;5022603;28;20033;-47
2022/03/19 06:54:10;;;;;;;20.13;9.50;;;;;;;-3.40;77.23;96962.28;5022362;28;20110;-47
2022/03/19 06:56:36;;;;;;;17.05;9.23;;;;;;;-3.25;75.38;96965.66;5021975;28;20477;-53
2022/03/19 06:59:03;;;;;;;24.85;12.25;;;;;;;-3.29;74.77;96954.81;5023208;28;20076;-51
2022/03/19 07:01:30;;;;;;;24.13;11.35;;;;;;;-2.97;74.79;96968.16;5021488;28;20111;-47
2022/03/19 07:03:57;;;;;;;31.00;12.48;;;;;;;-2.77;73.58;96968.66;5023032;28;20053;-47
2022/03/19 07:06:24;;;;;;;23.52;10.88;;;;;;;-2.64;71.58;96966.16;5022979;28;20049;-47
2022/03/19 07:09:11;;;;;;;17.70;10.13;;;;;;;-2.76;70.56;96965.19;5021027;28;20065;-47
2022/03/19 07:11:37;;;;;;;38.90;17.60;;;;;;;-2.58;71.53;96969.13;5023971;28;20057;-46
2022/03/19 07:14:05;;;;;;;39.03;15.68;;;;;;;-2.30;71.87;96975.03;5021111;28;20046;-52
2022/03/19 07:16:33;;;;;;;34.15;15.18;;;;;;;-2.06;71.42;96962.41;5020594;28;20041;-50
2022/03/19 07:19:00;;;;;;;19.75;10.68;;;;;;;-1.81;69.54;96964.19;5019882;28;20056;-48
2022/03/19 07:21:28;;;;;;;20.60;10.20;;;;;;;-1.75;68.49;96966.34;5022868;28;20033;-51
2022/03/19 07:23:55;;;;;;;22.00;10.68;;;;;;;-1.55;68.87;96962.44;5022072;28;20060;-52
2022/03/19 07:26:21;;;;;;;22.52;10.52;;;;;;;-1.31;67.55;96964.28;5022133;28;20053;-46
2022/03/19 07:28:48;;;;;;;23.42;10.65;;;;;;;-0.99;68.63;96969.72;5020921;28;20104;-48
2022/03/19 07:31:15;;;;;;;23.48;12.70;;;;;;;-0.72;68.71;96966.16;5021124;28;20053;-51
2022/03/19 07:33:47;;;;;;;17.52;9.88;;;;;;;-0.60;60.95;96975.50;5024346;28;20104;-49
2022/03/19 07:36:14;;;;;;;25.25;8.65;;;;;;;-0.45;58.46;96980.47;5023075;28;20072;-53
2022/03/19 07:38:40;;;;;;;16.98;8.38;;;;;;;-0.51;56.81;96963.00;5023483;28;20046;-46
2022/03/19 07:43:52;;;;;;;21.88;9.25;;;;;;;-0.25;57.43;96961.94;5020257;28;20107;-50
2022/03/19 07:46:20;;;;;;;35.83;17.63;;;;;;;-0.05;56.99;96959.69;5025147;28;20046;-49
2022/03/19 07:48:47;;;;;;;17.35;9.73;;;;;;;0.21;53.58;96967.19;5023349;28;20099;-48
2022/03/19 07:51:14;;;;;;;20.25;10.82;;;;;;;0.38;53.49;96969.34;5021324;28;20054;-49
2022/03/19 07:53:41;;;;;;;38.35;12.63;;;;;;;0.59;53.49;96964.31;5019273;28;20057;-50
2022/03/19 07:56:08;;;;;;;18.50;8.38;;;;;;;0.79;50.10;96965.34;5021290;28;20073;-44
2022/03/19 07:58:34;;;;;;;14.57;7.13;;;;;;;0.89;49.73;96966.28;5018080;28;20049;-46
2022/03/19 08:01:01;;;;;;;25.05;8.38;;;;;;;0.86;48.23;96946.00;5017406;28;20057;-49
2022/03/19 08:03:28;;;;;;;17.88;8.73;;;;;;;1.10;49.51;96970.72;5018104;28;20037;-47
2022/03/19 08:05:55;;;;;;;28.83;9.15;;;;;;;1.01;49.27;96963.72;5021830;28;20118;-47
2022/03/19 08:08:22;;;;;;;14.35;7.25;;;;;;;1.11;48.70;96962.06;5017843;28;20091;-49
2022/03/19 08:10:49;;;;;;;18.98;9.30;;;;;;;1.20;48.92;96961.34;5015893;28;20069;-49
2022/03/19 08:13:17;;;;;;;22.90;12.23;;;;;;;1.25;47.29;96961.81;5020393;28;20447;-49
2022/03/19 08:15:44;;;;;;;19.20;10.07;;;;;;;1.26;47.20;96958.31;5016707;28;20064;-51
2022/03/19 08:18:12;;;;;;;29.92;15.85;;;;;;;1.39;47.24;96965.03;5016807;28;20038;-48
2022/03/19 08:20:39;;;;;;;18.42;8.70;;;;;;;1.39;46.05;96953.03;5017443;28;20498;-45
2022/03/19 08:23:06;;;;;;;26.30;14.15;;;;;;;1.47;43.83;96954.97;5017363;28;20083;-47
2022/03/19 08:25:33;;;;;;;24.23;12.90;;;;;;;1.38;44.82;96955.72;5020418;28;20077;-47
2022/03/19 08:28:00;;;;;;;25.63;12.07;;;;;;;1.58;44.96;96946.44;5020359;28;20042;-49
2022/03/19 08:30:32;;;;;;;17.10;7.35;;;;;;;1.83;44.19;96947.84;5017958;28;20126;-46
2022/03/19 08:32:59;;;;;;;18.05;8.23;;;;;;;2.13;44.46;96943.72;5017927;28;20050;-46
2022/03/19 08:35:26;;;;;;;11.32;6.38;;;;;;;2.43;42.20;96948.91;5016208;28;20163;-50
2022/03/19 08:40:15;;;;;;;19.38;8.48;;;;;;;2.55;41.76;96948.81;5022931;28;20515;-46
2022/03/19 08:40:39;;;;;;;22.52;8.70;;;;;;;2.73;41.91;96943.88;5018298;28;20049;-48
2022/03/19 08:43:06;;;;;;;14.38;6.53;;;;;;;2.33;40.20;96945.44;5020265;28;20041;-50
2022/03/19 08:45:33;;;;;;;10.15;4.75;;;;;;;2.35;40.86;96935.84;5016887;28;20068;-48
2022/03/19 08:48:00;;;;;;;18.08;6.18;;;;;;;2.36;40.76;96937.50;5019289;28;20041;-47
2022/03/19 08:50:28;;;;;;;13.57;6.13;;;;;;;2.38;41.02;96940.75;5016408;28;20049;-48
2022/03/19 08:52:55;;;;;;;16.85;7.57;;;;;;;2.66;41.45;96939.22;5016913;28;20060;-52
2022/03/19 08:55:22;;;;;;;12.48;6.03;;;;;;;2.98;41.73;96938.25;5020215;28;20064;-47
2022/03/19 08:57:49;;;;;;;12.55;6.20;;;;;;;3.44;40.88;96938.63;5020434;28;20072;-53
2022/03/19 09:00:16;;;;;;;14.55;6.53;;;;;;;3.76;39.69;96932.38;5018661;28;20051;-50
2022/03/19 09:02:44;;;;;;;14.48;6.80;;;;;;;3.96;37.64;96928.84;5022113;28;20049;-50
2022/03/19 09:05:11;;;;;;;12.88;8.45;;;;;;;3.92;37.08;96917.16;5021495;28;20397;-49
2022/03/19 09:07:38;;;;;;;14.25;7.47;;;;;;;4.01;37.36;96925.84;5019523;28;20054;-51
2022/03/19 09:10:05;;;;;;;12.45;6.55;;;;;;;4.19;37.17;96923.38;5016028;28;20426;-46
2022/03/19 09:12:36;;;;;;;15.88;7.80;;;;;;;4.68;38.11;96918.88;5017955;28;20048;-49
2022/03/19 09:15:04;;;;;;;11.15;5.38;;;;;;;5.21;38.42;96924.31;5015852;28;20045;-52
2022/03/19 09:17:31;;;;;;;9.45;5.75;;;;;;;5.75;35.98;96922.56;5019516;28;20053;-51
2022/03/19 09:19:58;;;;;;;10.73;5.65;;;;;;;5.21;33.49;96919.16;5020003;28;20037;-47
2022/03/19 09:22:25;;;;;;;12.88;6.13;;;;;;;5.52;34.99;96917.03;5021735;28;20784;-48
2022/03/19 09:24:51;;;;;;;9.90;5.93;;;;;;;5.61;33.68;96925.66;5024262;28;20056;-49
2022/03/19 09:27:18;;;;;;;10.55;5.30;;;;;;;5.28;34.44;96925.38;5022573;28;20048;-47
2022/03/19 09:29:45;;;;;;;11.93;5.80;;;;;;;5.30;33.85;96924.25;5017336;28;20068;-49
2022/03/19 09:32:12;;;;;;;13.60;6.03;;;;;;;5.59;40.19;96923.22;5020767;28;20052;-48
2022/03/19 09:34:40;;;;;;;12.15;7.07;;;;;;;5.99;34.97;96918.56;5019358;28;20102;-51
2022/03/19 09:37:07;;;;;;;14.13;6.47;;;;;;;6.07;32.66;96922.03;5022192;28;20044;-49
2022/03/19 09:39:34;;;;;;;25.83;5.07;;;;;;;5.83;33.18;96922.59;5015091;28;20518;-51
2022/03/19 09:42:03;;;;;;;11.48;5.93;;;;;;;5.61;35.01;96920.50;5014945;28;20049;-46
2022/03/19 09:44:31;;;;;;;11.52;6.25;;;;;;;5.59;34.86;96922.41;5022047;28;20128;-48
2022/03/19 09:46:58;;;;;;;10.25;5.93;;;;;;;5.79;34.05;96913.53;5019982;28;20548;-50
2022/03/19 09:49:25;;;;;;;11.45;6.25;;;;;;;5.69;32.91;96902.44;5020134;28;20053;-51
2022/03/19 09:51:54;;;;;;;12.98;6.35;;;;;;;5.36;35.46;96915.88;5025755;28;20056;-52
2022/03/19 09:54:22;;;;;;;13.75;6.55;;;;;;;5.15;34.22;96921.34;5017253;28;20059;-49
2022/03/19 09:56:50;;;;;;;12.05;7.00;;;;;;;5.10;34.53;96913.22;5016766;28;20099;-51
2022/03/19 09:59:17;;;;;;;9.73;5.40;;;;;;;5.37;33.88;96924.47;5016677;28;20073;-49
2022/03/19 10:01:47;;;;;;;12.55;5.75;;;;;;;5.63;35.60;96919.38;5021815;28;20068;-49
2022/03/19 10:04:20;;;;;;;9.52;5.68;;;;;;;6.21;34.67;96915.50;5020437;28;20049;-50
2022/03/19 10:09:48;;;;;;;8.25;4.35;;;;;;;7.24;31.91;96927.63;5017621;28;20045;-47
2022/03/19 10:12:19;;;;;;;6.55;4.85;;;;;;;7.60;30.74;96919.56;5015672;28;20038;-50
2022/03/19 10:14:47;;;;;;;45.70;21.17;;;;;;;7.70;31.35;96930.59;5016251;28;20052;-47
2022/03/19 10:17:30;;;;;;;197.60;89.20;;;;;;;7.42;32.42;96936.06;5018812;28;20067;-50
2022/03/19 10:20:00;;;;;;;150.02;67.05;;;;;;;6.94;30.88;96926.38;5020448;28;20049;-48
2022/03/19 10:22:29;;;;;;;26.92;14.95;;;;;;;6.14;32.45;96917.06;5017980;28;20095;-46
2022/03/19 10:25:02;;;;;;;14.73;7.43;;;;;;;5.43;34.02;96939.38;5022495;28;20071;-48
2022/03/19 10:27:34;;;;;;;28.75;14.40;;;;;;;4.92;36.35;96920.94;5020083;28;20598;-46
2022/03/19 10:30:16;;;;;;;51.10;22.15;;;;;;;4.70;39.35;96916.97;5020592;28;20085;-47
2022/03/19 10:32:48;;;;;;;14.52;8.20;;;;;;;4.48;35.67;96922.47;5017586;28;20048;-47
2022/03/19 10:35:26;;;;;;;11.70;5.70;;;;;;;4.24;36.31;96926.34;5019442;28;20054;-50
2022/03/19 10:37:53;;;;;;;7.00;4.15;;;;;;;3.97;36.56;96930.47;5023685;28;20127;-49
2022/03/19 10:40:20;;;;;;;10.85;6.03;;;;;;;3.84;37.47;96919.63;5020767;28;20053;-51
2022/03/19 10:42:50;;;;;;;9.13;5.45;;;;;;;3.74;38.39;96918.81;5023761;28;20411;-49
2022/03/19 10:45:22;;;;;;;123.30;51.75;;;;;;;3.99;39.30;96913.09;5022149;28;20060;-50
2022/03/19 10:47:49;;;;;;;210.75;89.03;;;;;;;4.33;37.40;96917.75;5019851;28;20387;-52
2022/03/19 10:50:24;;;;;;;44.13;20.88;;;;;;;4.39;36.36;96919.81;5019001;28;20050;-51
2022/03/19 10:52:52;;;;;;;19.17;9.00;;;;;;;4.30;36.77;96915.47;5020451;28;20045;-50
2022/03/19 10:55:20;;;;;;;16.30;6.95;;;;;;;4.18;36.59;96919.19;5019222;28;20053;-51
2022/03/19 10:57:47;;;;;;;15.40;6.63;;;;;;;4.11;36.80;96920.69;5018215;28;20049;-52
2022/03/19 11:00:19;;;;;;;13.18;6.53;;;;;;;3.64;37.96;96918.84;5020056;28;20542;-47
2022/03/19 11:02:48;;;;;;;13.60;5.93;;;;;;;3.51;38.58;96907.97;5016341;28;20069;-48
2022/03/19 11:05:18;;;;;;;9.85;4.47;;;;;;;3.52;37.91;96920.72;5020413;28;20050;-51
2022/03/19 11:07:46;;;;;;;16.05;6.32;;;;;;;3.62;38.13;96921.53;5018776;28;20570;-51
2022/03/19 11:10:14;;;;;;;15.73;7.47;;;;;;;3.76;38.76;96911.75;5020468;28;20053;-49
2022/03/19 11:12:50;;;;;;;16.33;5.38;;;;;;;3.98;37.07;96895.16;5020783;28;20380;-52
2022/03/19 11:15:19;;;;;;;17.60;6.30;;;;;;;4.32;36.35;96898.09;5021289;28;20073;-51
2022/03/19 11:17:49;;;;;;;12.68;7.10;;;;;;;4.60;36.26;96905.88;5022385;28;20054;-47
2022/03/19 11:20:15;;;;;;;10.13;6.03;;;;;;;4.62;36.67;96878.13;5027931;28;20107;-49
2022/03/19 11:22:52;;;;;;;8.88;6.03;;;;;;;4.83;35.29;96892.59;5021010;28;20135;-48
2022/03/19 11:25:25;;;;;;;14.45;6.05;;;;;;;4.83;35.17;96890.00;5018814;28;20079;-49
2022/03/19 11:27:56;;;;;;;13.27;5.60;;;;;;;4.69;35.59;96886.94;5021465;28;20045;-48
2022/03/19 11:30:31;;;;;;;9.38;5.93;;;;;;;4.52;36.38;96892.84;5022009;28;20442;-50
2022/03/19 11:33:05;;;;;;;10.75;5.70;;;;;;;4.44;36.09;96879.84;5019044;28;20442;-51
2022/03/19 11:35:33;;;;;;;12.40;6.60;;;;;;;4.46;36.29;96893.44;5019166;28;20049;-49
2022/03/19 11:38:05;;;;;;;14.80;7.20;;;;;;;4.45;36.75;96881.47;5022028;28;20499;-48
2022/03/19 11:40:35;;;;;;;13.98;8.23;;;;;;;4.64;36.49;96890.91;5019609;28;20050;-50
2022/03/19 11:43:24;;;;;;;14.80;8.70;;;;;;;4.86;35.49;96887.94;5023702;28;20069;-51
2022/03/19 11:45:57;;;;;;;11.02;6.70;;;;;;;4.74;36.09;96886.53;5018639;28;20061;-50
2022/03/19 11:48:45;;;;;;;14.18;6.78;;;;;;;4.60;34.95;96877.47;5018940;28;20064;-51